createdAt,value
2023-02-19T00:01:45.961Z,7.01
2023-02-19T00:06:49.119Z,7.00
2023-02-19T00:11:54.840Z,6.98
2023-02-19T00:16:59.608Z,6.98
2023-02-19T00:22:01.263Z,6.99
2023-02-19T00:27:03.033Z,7.01
2023-02-19T00:32:05.195Z,6.99
2023-02-19T00:37:08.206Z,6.94
2023-02-19T00:42:09.980Z,6.94
2023-02-19T00:47:11.688Z,6.93
2023-02-19T00:52:14.403Z,6.89
2023-02-19T00:57:16.250Z,6.86
2023-02-19T01:02:18.331Z,6.85
2023-02-19T01:07:19.998Z,6.85
2023-02-19T01:12:21.654Z,6.83
2023-02-19T01:17:23.469Z,6.79
2023-02-19T01:22:25.154Z,6.76
2023-02-19T01:27:26.848Z,6.74
2023-02-19T01:32:28.500Z,6.70
2023-02-19T01:37:30.404Z,6.69
2023-02-19T01:42:32.174Z,6.72
2023-02-19T01:47:34.100Z,6.75
2023-02-19T01:52:36.991Z,6.78
2023-02-19T01:57:45.070Z,6.77
2023-02-19T02:02:51.362Z,6.78
2023-02-19T02:08:11.651Z,6.77
2023-02-19T02:13:13.423Z,6.73
2023-02-19T02:18:43.733Z,6.70
2023-02-19T02:24:23.040Z,6.69
2023-02-19T02:29:59.006Z,6.67
2023-02-19T02:35:13.458Z,6.66
2023-02-19T02:40:17.224Z,6.65
2023-02-19T02:45:37.892Z,6.66
2023-02-19T02:50:58.805Z,6.65
2023-02-19T02:56:02.616Z,6.61
2023-02-19T03:01:33.740Z,6.62
2023-02-19T03:06:37.992Z,6.65
2023-02-19T03:12:02.249Z,6.65
2023-02-19T03:17:48.647Z,6.64
2023-02-19T03:22:52.920Z,6.66
2023-02-19T03:27:59.164Z,6.69
2023-02-19T03:33:09.581Z,6.69
2023-02-19T03:38:19.677Z,6.68
2023-02-19T03:43:33.949Z,6.69
2023-02-19T03:48:41.936Z,6.72
2023-02-19T03:54:16.055Z,6.71
2023-02-19T03:59:32.446Z,6.68
2023-02-19T04:04:39.347Z,6.70
2023-02-19T04:09:46.061Z,6.74
2023-02-19T04:15:10.044Z,6.75
2023-02-19T04:20:13.780Z,6.77
2023-02-19T04:25:15.683Z,6.81
2023-02-19T04:30:17.714Z,6.84
2023-02-19T04:35:19.507Z,6.82
2023-02-19T04:40:21.351Z,6.78
2023-02-19T04:45:23.078Z,6.77
2023-02-19T04:50:25.511Z,6.79
2023-02-19T04:55:27.293Z,6.79
2023-02-19T05:00:28.988Z,6.77
2023-02-19T05:05:30.704Z,6.80
2023-02-19T05:10:33.723Z,6.83
2023-02-19T05:15:35.605Z,6.82
2023-02-19T05:20:37.608Z,6.81
2023-02-19T05:25:39.244Z,6.78
2023-02-19T05:30:40.913Z,6.77
2023-02-19T05:35:49.533Z,6.80
2023-02-19T05:40:51.334Z,6.82
2023-02-19T05:45:52.987Z,6.81
2023-02-19T05:50:54.762Z,6.82
2023-02-19T05:55:56.724Z,6.84
2023-02-19T06:00:58.597Z,6.89
2023-02-19T06:06:00.385Z,6.93
2023-02-19T06:11:02.039Z,6.97
2023-02-19T06:16:05.065Z,7.01
2023-02-19T06:21:10.351Z,7.06
2023-02-19T06:26:13.294Z,7.05
2023-02-19T06:31:17.531Z,7.03
2023-02-19T06:36:21.189Z,7.02
2023-02-19T06:41:22.850Z,7.02
2023-02-19T06:46:24.600Z,7.00
2023-02-19T06:51:28.874Z,7.01
2023-02-19T06:56:37.510Z,7.04
2023-02-19T07:01:40.164Z,7.09
2023-02-19T07:06:41.934Z,7.12
2023-02-19T07:11:43.613Z,7.12
2023-02-19T07:16:47.303Z,7.16
2023-02-19T07:21:49.127Z,7.19
2023-02-19T07:26:50.934Z,7.27
2023-02-19T07:31:52.713Z,7.31
2023-02-19T07:36:54.599Z,7.35
2023-02-19T07:41:57.782Z,7.41
2023-02-19T07:47:02.330Z,7.49
2023-02-19T07:52:04.143Z,7.58
2023-02-19T07:57:05.895Z,7.66
2023-02-19T08:02:37.278Z,7.75
2023-02-19T08:07:38.994Z,7.87
2023-02-19T08:13:10.358Z,8.00
2023-02-19T08:18:13.938Z,8.08
2023-02-19T08:23:15.996Z,8.20
2023-02-19T08:28:18.951Z,8.30
2023-02-19T08:33:21.386Z,8.28
2023-02-19T08:38:23.292Z,8.21
2023-02-19T08:43:25.096Z,8.13
2023-02-19T08:48:26.817Z,8.02
2023-02-19T08:53:28.535Z,7.97
2023-02-19T08:58:30.200Z,7.94
2023-02-19T09:03:31.934Z,7.87
2023-02-19T09:08:33.617Z,7.77
2023-02-19T09:13:35.381Z,7.69
2023-02-19T09:18:37.100Z,7.65
2023-02-19T09:23:38.826Z,7.59
2023-02-19T09:28:41.977Z,7.55
2023-02-19T09:33:48.165Z,7.56
2023-02-19T09:38:49.836Z,7.61
2023-02-19T09:43:51.946Z,7.66
2023-02-19T09:48:58.924Z,7.71
2023-02-19T09:54:01.670Z,7.69
2023-02-19T09:59:04.246Z,7.59
2023-02-19T10:04:05.902Z,7.43
2023-02-19T10:09:21.782Z,7.31
2023-02-19T10:14:29.951Z,7.18
2023-02-19T10:19:33.527Z,7.21
2023-02-19T10:24:37.532Z,7.30
2023-02-19T10:29:40.621Z,7.38
2023-02-19T10:34:42.358Z,7.29
2023-02-19T10:39:47.103Z,6.90
2023-02-19T10:44:56.355Z,6.60
2023-02-19T10:50:02.108Z,6.53
2023-02-19T10:55:36.742Z,6.54
2023-02-19T11:00:39.579Z,6.66
2023-02-19T11:05:53.127Z,6.88
2023-02-19T11:10:55.176Z,7.22
2023-02-19T11:15:57.388Z,7.38
2023-02-19T11:21:04.229Z,7.32
2023-02-19T11:26:19.731Z,7.03
2023-02-19T11:31:35.467Z,6.55
2023-02-19T11:36:37.859Z,6.36
2023-02-19T11:42:01.660Z,6.49
2023-02-19T11:47:28.185Z,6.66
2023-02-19T11:52:42.346Z,6.78
2023-02-19T11:58:35.072Z,6.73
2023-02-19T12:03:48.778Z,6.50
2023-02-19T12:09:22.447Z,6.35
2023-02-19T12:14:41.663Z,6.28
2023-02-19T12:20:08.300Z,6.33
2023-02-19T12:25:23.802Z,6.49
2023-02-19T12:30:44.306Z,6.54
2023-02-19T12:36:23.752Z,6.37
2023-02-19T12:41:34.964Z,6.15
2023-02-19T12:46:56.729Z,5.97
2023-02-19T12:52:12.980Z,5.79
2023-02-19T12:57:32.776Z,5.65
2023-02-19T13:02:46.251Z,5.45
2023-02-19T13:07:52.903Z,5.23
2023-02-19T13:12:59.285Z,5.11
2023-02-19T13:18:05.413Z,4.97
2023-02-19T13:23:36.330Z,4.93
2023-02-19T13:28:52.794Z,4.96
2023-02-19T13:34:31.794Z,4.96
2023-02-19T13:39:34.282Z,4.98
2023-02-19T13:44:40.690Z,4.95
2023-02-19T13:49:42.469Z,4.91
2023-02-19T13:54:44.298Z,4.94
2023-02-19T13:59:46.443Z,4.96
2023-02-19T14:04:55.947Z,5.02
2023-02-19T14:09:58.599Z,5.08
2023-02-19T14:15:39.202Z,5.16
2023-02-19T14:20:44.966Z,5.26
2023-02-19T14:25:52.647Z,5.33
2023-02-19T14:31:31.419Z,5.31
2023-02-19T14:36:40.645Z,5.25
2023-02-19T14:41:46.786Z,5.17
2023-02-19T14:47:06.047Z,5.07
2023-02-19T14:52:15.614Z,4.91
2023-02-19T14:57:22.936Z,4.74
2023-02-19T15:02:27.128Z,4.66
2023-02-19T15:07:33.225Z,4.60
2023-02-19T15:12:44.301Z,4.53
2023-02-19T15:17:46.223Z,4.45
2023-02-19T15:22:48.035Z,4.36
2023-02-19T15:27:50.917Z,4.30
2023-02-19T15:32:59.895Z,4.28
2023-02-19T15:38:01.579Z,4.23
2023-02-19T15:43:03.643Z,4.21
2023-02-19T15:48:14.608Z,4.18
2023-02-19T15:53:22.291Z,4.07
2023-02-19T15:58:37.046Z,3.98
2023-02-19T16:03:39.638Z,3.94
2023-02-19T16:09:03.168Z,3.86
2023-02-19T16:14:32.038Z,3.72
2023-02-19T16:19:43.594Z,3.58
2023-02-19T16:24:48.788Z,3.41
2023-02-19T16:29:51.700Z,3.25
2023-02-19T16:34:53.614Z,3.09
2023-02-19T16:40:07.218Z,2.99
2023-02-19T16:45:09.124Z,2.94
2023-02-19T16:50:23.335Z,2.92
2023-02-19T16:55:26.246Z,2.97
2023-02-19T17:00:30.174Z,3.03
2023-02-19T17:05:32.554Z,3.06
2023-02-19T17:10:34.193Z,3.11
2023-02-19T17:15:35.923Z,3.13
2023-02-19T17:20:38.731Z,3.14
2023-02-19T17:25:40.578Z,3.15
2023-02-19T17:30:42.610Z,3.15
2023-02-19T17:35:45.020Z,3.14
2023-02-19T17:40:46.680Z,3.14
2023-02-19T17:45:48.816Z,3.17
2023-02-19T17:50:52.366Z,3.16
2023-02-19T17:55:54.086Z,3.11
2023-02-19T18:00:56.095Z,3.01
2023-02-19T18:05:57.852Z,2.90
2023-02-19T18:11:00.292Z,2.75
2023-02-19T18:16:02.222Z,2.55
2023-02-19T18:21:07.415Z,2.37
2023-02-19T18:26:10.868Z,2.22
2023-02-19T18:31:13.124Z,2.07
2023-02-19T18:36:15.087Z,1.90
2023-02-19T18:41:20.230Z,1.72
2023-02-19T18:46:22.324Z,1.62
2023-02-19T18:51:24.064Z,1.55
2023-02-19T18:56:25.804Z,1.46
2023-02-19T19:01:27.592Z,1.35
2023-02-19T19:06:30.884Z,1.26
2023-02-19T19:11:32.549Z,1.20
2023-02-19T19:16:35.499Z,1.12
2023-02-19T19:21:37.372Z,1.03
2023-02-19T19:26:45.180Z,0.92
2023-02-19T19:31:47.047Z,0.83
2023-02-19T19:36:49.051Z,0.79
2023-02-19T19:41:55.465Z,0.78
2023-02-19T19:46:57.480Z,0.78
2023-02-19T19:52:01.355Z,0.80
2023-02-19T19:57:03.314Z,0.90
2023-02-19T20:02:06.950Z,1.05
2023-02-19T20:07:08.722Z,1.19
2023-02-19T20:12:12.227Z,1.28
2023-02-19T20:17:14.954Z,1.36
2023-02-19T20:22:16.640Z,1.48
2023-02-19T20:27:19.599Z,1.61
2023-02-19T20:32:21.594Z,1.72
2023-02-19T20:37:23.303Z,1.78
2023-02-19T20:42:24.963Z,1.86
2023-02-19T20:47:28.029Z,1.91
2023-02-19T20:52:29.782Z,1.95
2023-02-19T20:57:31.454Z,2.00
2023-02-19T21:02:33.293Z,2.02
2023-02-19T21:07:35.329Z,2.00
2023-02-19T21:12:37.329Z,1.99
2023-02-19T21:17:39.090Z,2.01
2023-02-19T21:22:40.812Z,2.00
2023-02-19T21:27:42.491Z,1.94
2023-02-19T21:32:44.203Z,1.87
2023-02-19T21:37:46.304Z,1.82
2023-02-19T21:42:48.015Z,1.81
2023-02-19T21:47:52.202Z,1.81
2023-02-19T21:52:53.952Z,1.78
2023-02-19T21:57:55.693Z,1.75
2023-02-19T22:02:57.456Z,1.73
2023-02-19T22:08:00.047Z,1.67
2023-02-19T22:13:09.138Z,1.56
2023-02-19T22:18:11.031Z,1.43
2023-02-19T22:23:12.719Z,1.32
2023-02-19T22:28:14.446Z,1.27
2023-02-19T22:33:16.130Z,1.21
2023-02-19T22:38:17.850Z,1.13
2023-02-19T22:43:19.616Z,1.06
2023-02-19T22:48:29.534Z,1.02
2023-02-19T22:53:31.920Z,1.00
2023-02-19T22:58:33.670Z,0.93
2023-02-19T23:03:35.462Z,0.84
2023-02-19T23:08:37.106Z,0.76
2023-02-19T23:13:42.332Z,0.72
2023-02-19T23:18:43.992Z,0.73
2023-02-19T23:23:46.619Z,0.74
2023-02-19T23:28:48.778Z,0.76
2023-02-19T23:33:50.436Z,0.82
2023-02-19T23:38:52.174Z,0.91
2023-02-19T23:43:54.236Z,0.97
2023-02-19T23:48:55.884Z,1.00
2023-02-19T23:53:57.584Z,1.03
2023-02-19T23:58:59.689Z,1.10
